Canefield Airport

Partly cloudy with slight haze
30oC (86oF)

Partly cloudy with slight haze


Winds: Easterly @ 08kts / 15km/h

Humidity: 61%

Barometric Pressure: 1016 mb

Accumulated Rainfall for July: 78.6 mm

Updated: 9:00 local time (13:00 UTC)

Douglas-Charles Airport

Cloudy with slight haze
31oC (88oF)

Cloudy with slight haze


Winds: East south easterly @ 09kts / 17km/h

Humidity: 74%

Barometric Pressure: 1018 mb

Accumulated Rainfall for July: 125.3 mm

Updated: 10:00 local time (14:00 UTC)

Satellite Imagery

Satellite Imagery
Click image for larger view. (Source: National Hurricane Center).

Aviation Routine Report (METAR)

Douglas-Charles: METAR TDPD 231400Z 11009KT 9999 BKN017 31/25 Q1018=
Canefield: METAR TDCF 231300Z 10008KT 9999 SCT017 30/22 Q1016=